Salmon Creek, California
Current Conditions -  °F | °C
As of 9:53 PM on Thursday 18 Dec 2014 (Local Time) from KSTS Reporting Station
Haze Haze  
Wind Chill: 11°   Ceiling: 4200
Heat Index: 11°   Visibility: 5mi
Dew Point: 10°   Wind: 0mph
Humidity: 93%   Direction: NA
Pressure: 30.14"   Gusts: NA
Location:  38.3575°N, 123.043°W
Report Text: KSTS 190553Z AUTO 00000KT 5SM BR FEW024 BKN042 OVC049 11/10 A3014 RMK AO2 SLP201 T01110100 10128 20100 50001
Loading
Personal Weather Stations






























Interactive Weather Map New forecast layout! Learn more

10-Day Weather Forecast

Advertisements
Track Severe Weather on mobile